createdAt,value
2023-08-30T00:01:13.891Z,74.90
2023-08-30T00:03:41.103Z,75.00
2023-08-30T00:06:08.679Z,75.20
2023-08-30T00:08:35.803Z,75.20
2023-08-30T00:11:04.063Z,75.30
2023-08-30T00:13:33.321Z,75.40
2023-08-30T00:16:00.795Z,75.50
2023-08-30T00:18:27.740Z,75.60
2023-08-30T00:20:54.825Z,75.70
2023-08-30T00:23:21.776Z,75.70
2023-08-30T00:25:49.889Z,75.70
2023-08-30T00:28:17.007Z,75.80
2023-08-30T00:30:44.122Z,75.80
2023-08-30T00:33:11.203Z,75.80
2023-08-30T00:35:38.245Z,75.90
2023-08-30T00:38:05.259Z,75.90
2023-08-30T00:40:39.776Z,75.90
2023-08-30T00:43:08.568Z,75.90
2023-08-30T00:45:39.104Z,75.90
2023-08-30T00:48:06.942Z,75.90
2023-08-30T00:50:35.568Z,75.90
2023-08-30T00:53:06.730Z,76.00
2023-08-30T00:55:38.034Z,76.00
2023-08-30T00:58:05.439Z,76.00
2023-08-30T01:00:32.927Z,76.10
2023-08-30T01:03:00.118Z,76.10
2023-08-30T01:05:29.484Z,76.20
2023-08-30T01:07:56.845Z,76.20
2023-08-30T01:10:36.327Z,76.30
2023-08-30T01:13:22.238Z,76.30
2023-08-30T01:15:51.901Z,76.40
2023-08-30T01:18:20.634Z,76.40
2023-08-30T01:20:49.759Z,76.50
2023-08-30T01:23:35.189Z,76.50
2023-08-30T01:26:05.758Z,76.60
2023-08-30T01:28:35.488Z,76.60
2023-08-30T01:31:04.142Z,76.70
2023-08-30T01:33:32.929Z,76.80
2023-08-30T01:36:02.813Z,76.90
2023-08-30T01:38:31.090Z,77.10
2023-08-30T01:41:01.004Z,77.30
2023-08-30T01:43:32.227Z,77.50
2023-08-30T01:46:01.466Z,77.60
2023-08-30T01:48:30.750Z,77.80
2023-08-30T01:51:00.190Z,77.90
2023-08-30T01:53:28.316Z,78.10
2023-08-30T01:55:55.367Z,78.20
2023-08-30T01:58:22.493Z,78.30
2023-08-30T02:00:49.550Z,78.40
2023-08-30T02:03:16.756Z,78.60
2023-08-30T02:05:58.838Z,78.80
2023-08-30T02:08:37.021Z,78.90
2023-08-30T02:11:08.745Z,79.10
2023-08-30T02:13:36.830Z,79.20
2023-08-30T02:16:05.094Z,79.20
2023-08-30T02:18:34.759Z,79.40
2023-08-30T02:21:02.356Z,79.50
2023-08-30T02:23:29.383Z,79.60
2023-08-30T02:25:58.037Z,79.60
2023-08-30T02:28:25.197Z,79.70
2023-08-30T02:30:55.276Z,79.80
2023-08-30T02:33:22.747Z,79.90
2023-08-30T02:35:49.696Z,80.00
2023-08-30T02:38:16.961Z,80.10
2023-08-30T02:40:44.226Z,80.20
2023-08-30T02:43:11.757Z,80.20
2023-08-30T02:45:38.773Z,80.30
2023-08-30T02:48:06.380Z,80.30
2023-08-30T02:50:33.353Z,80.30
2023-08-30T02:53:00.662Z,80.30
2023-08-30T02:55:27.685Z,80.30
2023-08-30T02:57:54.707Z,80.30
2023-08-30T03:00:22.473Z,80.30
2023-08-30T03:02:51.048Z,80.40
2023-08-30T03:05:19.132Z,80.40
2023-08-30T03:07:46.454Z,80.40
2023-08-30T03:10:13.788Z,80.50
2023-08-30T03:12:40.905Z,80.40
2023-08-30T03:15:08.113Z,80.50
2023-08-30T03:17:36.510Z,80.50
2023-08-30T03:20:04.908Z,80.50
2023-08-30T03:22:35.094Z,80.60
2023-08-30T03:25:04.554Z,80.60
2023-08-30T03:27:31.854Z,80.70
2023-08-30T03:29:59.283Z,80.70
2023-08-30T03:32:26.346Z,80.80
2023-08-30T03:34:53.382Z,80.80
2023-08-30T03:37:20.354Z,80.80
2023-08-30T03:39:47.392Z,80.90
2023-08-30T03:42:14.683Z,80.90
2023-08-30T03:44:41.713Z,80.90
2023-08-30T03:47:08.826Z,80.90
2023-08-30T03:49:36.718Z,80.90
2023-08-30T03:52:03.990Z,81.00
2023-08-30T03:54:32.699Z,81.00
2023-08-30T03:56:59.662Z,81.10
2023-08-30T03:59:28.533Z,81.10
2023-08-30T04:01:55.855Z,81.10
2023-08-30T04:04:22.998Z,81.20
2023-08-30T04:06:50.002Z,81.20
2023-08-30T04:09:17.352Z,81.20
2023-08-30T04:11:45.324Z,81.20
2023-08-30T04:14:12.376Z,81.20
2023-08-30T04:16:39.468Z,81.20
2023-08-30T04:19:08.363Z,81.20
2023-08-30T04:21:35.441Z,81.20
2023-08-30T04:24:02.521Z,81.20
2023-08-30T04:26:29.639Z,81.20
2023-08-30T04:28:57.307Z,81.30
2023-08-30T04:31:24.504Z,81.30
2023-08-30T04:33:53.815Z,81.30
2023-08-30T04:36:21.506Z,81.30
2023-08-30T04:39:01.774Z,81.40
2023-08-30T04:41:48.717Z,81.40
2023-08-30T04:44:15.861Z,81.40
2023-08-30T04:46:42.907Z,81.50
2023-08-30T04:49:09.977Z,81.50
2023-08-30T04:51:37.033Z,81.60
2023-08-30T04:54:04.225Z,81.60
2023-08-30T04:56:31.272Z,81.60
2023-08-30T04:58:58.797Z,81.70
2023-08-30T05:01:26.034Z,81.80
2023-08-30T05:03:56.497Z,81.80
2023-08-30T05:06:24.496Z,81.90
2023-08-30T05:11:19.089Z,82.00
2023-08-30T05:13:46.619Z,82.00
2023-08-30T05:16:14.437Z,82.10
2023-08-30T05:18:41.780Z,82.20
2023-08-30T05:21:08.798Z,82.20
2023-08-30T05:23:35.894Z,82.30
2023-08-30T05:26:02.983Z,82.40
2023-08-30T05:28:30.561Z,82.40
2023-08-30T05:30:57.834Z,82.50
2023-08-30T05:33:29.890Z,82.60
2023-08-30T05:36:12.348Z,82.60
2023-08-30T05:39:00.598Z,82.70
2023-08-30T05:41:35.798Z,82.80
2023-08-30T05:44:03.915Z,82.80
2023-08-30T05:46:31.023Z,82.80
2023-08-30T05:48:58.283Z,82.90
2023-08-30T05:51:25.328Z,82.90
2023-08-30T05:53:52.788Z,83.00
2023-08-30T05:56:19.957Z,83.00
2023-08-30T05:58:47.108Z,83.00
2023-08-30T06:01:14.885Z,83.10
2023-08-30T06:03:42.007Z,83.10
2023-08-30T06:06:09.109Z,83.10
2023-08-30T06:08:36.159Z,83.10
2023-08-30T06:11:03.816Z,83.20
2023-08-30T06:13:30.925Z,83.20
2023-08-30T06:15:57.961Z,83.20
2023-08-30T06:18:25.569Z,83.30
2023-08-30T06:20:52.502Z,83.30
2023-08-30T06:23:21.172Z,83.40
2023-08-30T06:25:55.583Z,83.40
2023-08-30T06:28:22.839Z,83.50
2023-08-30T06:30:50.223Z,83.50
2023-08-30T06:33:17.419Z,83.50
2023-08-30T06:35:44.525Z,83.60
2023-08-30T06:38:11.993Z,83.60
2023-08-30T06:40:47.520Z,83.70
2023-08-30T06:43:14.512Z,83.70
2023-08-30T06:45:45.715Z,83.70
2023-08-30T06:48:13.042Z,83.70
2023-08-30T06:50:40.390Z,83.80
2023-08-30T06:53:30.000Z,83.80
2023-08-30T06:56:01.352Z,83.80
2023-08-30T06:58:28.688Z,83.80
2023-08-30T07:00:57.861Z,83.80
2023-08-30T07:03:24.919Z,83.80
2023-08-30T07:05:54.692Z,83.80
2023-08-30T07:08:40.913Z,83.80
2023-08-30T07:11:17.096Z,83.80
2023-08-30T07:13:50.937Z,83.90
2023-08-30T07:16:17.883Z,83.90
2023-08-30T07:18:44.901Z,84.00
2023-08-30T07:21:11.924Z,84.00
2023-08-30T07:23:39.065Z,84.00
2023-08-30T07:26:06.023Z,84.00
2023-08-30T07:28:35.149Z,84.00
2023-08-30T07:31:06.622Z,84.10
2023-08-30T07:33:34.059Z,84.10
2023-08-30T07:36:01.108Z,84.10
2023-08-30T07:38:28.231Z,84.10
2023-08-30T07:40:55.295Z,84.10
2023-08-30T07:43:22.337Z,84.10
2023-08-30T07:45:49.540Z,84.10
2023-08-30T07:48:16.888Z,84.10
2023-08-30T07:50:43.842Z,84.20
2023-08-30T07:53:11.667Z,84.30
2023-08-30T07:55:38.918Z,84.30
2023-08-30T07:58:05.886Z,84.40
2023-08-30T08:00:32.868Z,84.40
2023-08-30T08:02:59.972Z,84.40
2023-08-30T08:05:27.075Z,84.40
2023-08-30T08:07:54.669Z,84.40
2023-08-30T08:10:21.701Z,84.40
2023-08-30T08:12:49.100Z,84.40
2023-08-30T08:15:16.210Z,84.40
2023-08-30T08:17:43.318Z,84.40
2023-08-30T08:20:10.962Z,84.40
2023-08-30T08:22:38.061Z,84.30
2023-08-30T08:25:05.604Z,84.30
2023-08-30T08:27:32.624Z,84.30
2023-08-30T08:29:59.586Z,84.20
2023-08-30T08:32:26.685Z,84.10
2023-08-30T08:34:53.874Z,84.10
2023-08-30T08:37:20.822Z,84.10
2023-08-30T08:39:48.008Z,84.10
2023-08-30T08:42:17.966Z,84.10
2023-08-30T08:44:47.238Z,84.00
2023-08-30T08:47:14.431Z,84.00
2023-08-30T08:49:42.111Z,84.00
2023-08-30T08:52:19.654Z,84.10
2023-08-30T08:54:56.945Z,84.20
2023-08-30T08:57:23.944Z,84.30
2023-08-30T08:59:51.461Z,84.30
2023-08-30T09:02:18.910Z,84.20
2023-08-30T09:04:46.522Z,84.20
2023-08-30T09:07:13.715Z,84.10
2023-08-30T09:09:40.815Z,84.10
2023-08-30T09:12:08.114Z,83.80
2023-08-30T09:14:35.151Z,83.50
2023-08-30T09:17:04.274Z,83.30
2023-08-30T09:19:31.542Z,83.10
2023-08-30T09:22:00.022Z,83.00
2023-08-30T09:24:27.442Z,82.80
2023-08-30T09:26:55.736Z,82.60
2023-08-30T09:29:26.514Z,82.40
2023-08-30T09:31:56.387Z,82.10
2023-08-30T09:34:27.352Z,81.90
2023-08-30T09:36:56.422Z,81.60
2023-08-30T09:39:23.842Z,81.40
2023-08-30T09:41:51.979Z,81.30
2023-08-30T09:44:23.225Z,81.10
2023-08-30T09:46:55.330Z,80.90
2023-08-30T09:49:24.633Z,80.60
2023-08-30T09:51:54.987Z,80.20
2023-08-30T09:56:58.586Z,79.20
2023-08-30T09:59:26.360Z,78.90
2023-08-30T10:01:54.905Z,78.60
2023-08-30T10:04:22.817Z,78.30
2023-08-30T10:06:51.762Z,77.80
2023-08-30T10:09:20.815Z,77.80
2023-08-30T10:11:48.598Z,77.60
2023-08-30T10:14:16.236Z,77.30
2023-08-30T10:16:48.131Z,76.60
2023-08-30T10:19:24.632Z,76.10
2023-08-30T10:22:18.267Z,75.90
2023-08-30T10:25:10.207Z,75.70
2023-08-30T10:27:42.199Z,75.50
2023-08-30T10:30:11.437Z,75.00
2023-08-30T10:32:45.841Z,74.50
2023-08-30T10:35:14.820Z,74.00
2023-08-30T10:37:42.247Z,73.30
2023-08-30T10:40:10.146Z,72.10
2023-08-30T10:42:37.251Z,70.40
2023-08-30T10:47:40.325Z,70.70
2023-08-30T10:50:10.402Z,70.80
2023-08-30T10:52:37.857Z,70.70
2023-08-30T10:55:11.781Z,70.20
2023-08-30T10:57:42.881Z,69.70
2023-08-30T11:00:15.037Z,69.60
2023-08-30T11:02:47.456Z,69.80
2023-08-30T11:05:16.621Z,69.80
2023-08-30T11:07:47.680Z,69.60
2023-08-30T11:10:15.427Z,69.10
2023-08-30T11:12:43.446Z,68.50
2023-08-30T11:15:12.026Z,68.50
2023-08-30T11:17:39.102Z,68.40
2023-08-30T11:20:14.938Z,68.20
2023-08-30T11:22:44.713Z,67.70
2023-08-30T11:25:13.322Z,67.60
2023-08-30T11:27:40.926Z,67.30
2023-08-30T11:30:09.608Z,67.00
2023-08-30T11:32:38.539Z,66.50
2023-08-30T11:35:06.973Z,66.20
2023-08-30T11:37:34.233Z,66.40
2023-08-30T11:40:03.739Z,65.90
2023-08-30T11:42:32.406Z,65.40
2023-08-30T11:45:00.930Z,64.80
2023-08-30T11:47:28.601Z,64.70
2023-08-30T11:50:00.464Z,64.70
2023-08-30T11:52:28.902Z,64.40
2023-08-30T11:54:56.422Z,63.20
2023-08-30T11:57:25.851Z,61.80
2023-08-30T11:59:52.858Z,61.50
2023-08-30T12:02:20.091Z,61.80
2023-08-30T12:04:48.308Z,61.10
2023-08-30T12:07:27.219Z,61.00
2023-08-30T12:10:08.943Z,60.70
2023-08-30T12:12:39.438Z,60.80
2023-08-30T12:15:13.190Z,60.80
2023-08-30T12:17:40.124Z,60.50
2023-08-30T12:20:07.939Z,59.90
2023-08-30T12:22:39.556Z,59.70
2023-08-30T12:25:24.601Z,59.50
2023-08-30T12:27:52.180Z,59.30
2023-08-30T12:30:19.485Z,59.30
2023-08-30T12:32:47.983Z,59.30
2023-08-30T12:35:15.943Z,59.50
2023-08-30T12:37:43.241Z,59.40
2023-08-30T12:40:10.933Z,59.10
2023-08-30T12:42:38.674Z,58.10
2023-08-30T12:45:06.397Z,57.60
2023-08-30T12:47:33.406Z,56.40
2023-08-30T12:50:00.404Z,55.40
2023-08-30T12:52:27.655Z,55.70
2023-08-30T12:54:55.402Z,55.90
2023-08-30T12:57:22.488Z,55.90
2023-08-30T12:59:49.516Z,55.50
2023-08-30T13:02:16.726Z,55.00
2023-08-30T13:04:43.779Z,54.90
2023-08-30T13:07:10.825Z,55.20
2023-08-30T13:09:37.813Z,55.40
2023-08-30T13:12:05.283Z,55.50
2023-08-30T13:14:32.458Z,55.50
2023-08-30T13:16:59.683Z,56.00
2023-08-30T13:19:26.765Z,56.50
2023-08-30T13:21:53.796Z,56.50
2023-08-30T13:24:20.793Z,56.50
2023-08-30T13:26:47.819Z,56.90
2023-08-30T13:29:16.383Z,57.10
2023-08-30T13:31:43.430Z,56.70
2023-08-30T13:34:10.434Z,56.20
2023-08-30T13:36:37.865Z,56.20
2023-08-30T13:39:05.261Z,56.40
2023-08-30T13:41:32.353Z,56.80
2023-08-30T13:44:02.320Z,57.10
2023-08-30T13:46:30.519Z,57.30
2023-08-30T13:48:57.911Z,57.70
2023-08-30T13:51:26.359Z,57.90
2023-08-30T13:53:54.243Z,57.90
2023-08-30T13:56:21.551Z,57.80
2023-08-30T13:58:48.901Z,57.90
2023-08-30T14:01:16.087Z,57.90
2023-08-30T14:03:43.320Z,57.90
2023-08-30T14:06:10.541Z,57.90
2023-08-30T14:08:37.917Z,58.00
2023-08-30T14:11:05.102Z,58.20
2023-08-30T14:13:34.938Z,58.10
2023-08-30T14:16:05.315Z,58.00
2023-08-30T14:18:32.917Z,58.10
2023-08-30T14:21:01.096Z,58.00
2023-08-30T14:23:30.087Z,57.30
2023-08-30T14:26:00.088Z,56.70
2023-08-30T14:28:28.117Z,56.30
2023-08-30T14:30:55.467Z,56.60
2023-08-30T14:33:22.611Z,56.60
2023-08-30T14:35:49.628Z,56.50
2023-08-30T14:38:16.715Z,56.70
2023-08-30T14:40:43.870Z,56.00
2023-08-30T14:43:11.015Z,56.00
2023-08-30T14:45:38.031Z,55.70
2023-08-30T14:48:05.525Z,55.70
2023-08-30T14:50:32.592Z,55.70
2023-08-30T14:52:59.693Z,55.90
2023-08-30T14:55:26.701Z,56.00
2023-08-30T14:57:54.545Z,55.80
2023-08-30T15:00:21.731Z,56.00
2023-08-30T15:02:48.898Z,56.10
2023-08-30T15:05:16.402Z,56.40
2023-08-30T15:07:43.536Z,56.80
2023-08-30T15:10:11.335Z,57.50
2023-08-30T15:12:41.116Z,57.70
2023-08-30T15:15:08.772Z,57.50
2023-08-30T15:17:35.890Z,57.50
2023-08-30T15:20:05.010Z,57.60
2023-08-30T15:22:33.485Z,57.50
2023-08-30T15:25:02.976Z,57.20
2023-08-30T15:27:30.651Z,56.80
2023-08-30T15:29:58.083Z,56.60
2023-08-30T15:32:25.706Z,56.60
2023-08-30T15:34:52.888Z,56.30
2023-08-30T15:37:19.905Z,56.40
2023-08-30T15:39:47.206Z,56.60
2023-08-30T15:42:14.220Z,56.90
2023-08-30T15:44:41.454Z,57.10
2023-08-30T15:47:08.497Z,57.30
2023-08-30T15:49:40.264Z,57.30
2023-08-30T15:52:07.430Z,57.40
2023-08-30T15:54:34.449Z,57.70
2023-08-30T15:57:01.579Z,57.80
2023-08-30T15:59:28.593Z,57.90
2023-08-30T16:01:55.671Z,58.00
2023-08-30T16:04:23.830Z,58.30
2023-08-30T16:07:09.293Z,58.30
2023-08-30T16:09:37.774Z,58.20
2023-08-30T16:12:05.089Z,58.30
2023-08-30T16:14:32.201Z,58.00
2023-08-30T16:16:59.155Z,57.90
2023-08-30T16:19:26.997Z,57.90
2023-08-30T16:21:55.039Z,57.90
2023-08-30T16:24:24.248Z,57.80
2023-08-30T16:26:56.383Z,57.90
2023-08-30T16:29:24.645Z,58.00
2023-08-30T16:31:53.344Z,58.10
2023-08-30T16:34:21.007Z,58.20
2023-08-30T16:36:49.834Z,58.40
2023-08-30T16:39:35.456Z,58.50
2023-08-30T16:42:02.720Z,58.90
2023-08-30T16:44:29.760Z,59.30
2023-08-30T16:46:56.838Z,59.50
2023-08-30T16:49:23.837Z,59.80
2023-08-30T16:51:50.948Z,59.90
2023-08-30T16:54:18.138Z,60.10
2023-08-30T16:56:45.496Z,60.20
2023-08-30T16:59:12.497Z,60.30
2023-08-30T17:01:39.924Z,60.20
2023-08-30T17:04:07.128Z,60.20
2023-08-30T17:06:34.260Z,60.00
2023-08-30T17:09:08.227Z,59.90
2023-08-30T17:11:36.035Z,60.00
2023-08-30T17:14:03.310Z,60.00
2023-08-30T17:16:30.435Z,60.10
2023-08-30T17:18:57.692Z,60.20
2023-08-30T17:21:25.818Z,60.60
2023-08-30T17:23:53.012Z,60.80
2023-08-30T17:26:20.057Z,61.00
2023-08-30T17:28:47.207Z,61.20
2023-08-30T17:31:15.437Z,61.30
2023-08-30T17:33:42.414Z,61.30
2023-08-30T17:36:09.939Z,61.40
2023-08-30T17:38:40.095Z,61.70
2023-08-30T17:41:11.001Z,61.90
2023-08-30T17:43:38.400Z,62.20
2023-08-30T17:46:05.893Z,62.50
2023-08-30T17:48:34.501Z,62.80
2023-08-30T17:51:03.152Z,63.10
2023-08-30T17:53:30.860Z,63.40
2023-08-30T17:55:58.830Z,63.60
2023-08-30T17:58:30.462Z,64.00
2023-08-30T18:01:00.283Z,64.30
2023-08-30T18:03:46.947Z,64.40
2023-08-30T18:06:15.729Z,64.70
2023-08-30T18:08:45.707Z,64.80
2023-08-30T18:11:19.149Z,65.00
2023-08-30T18:13:46.909Z,65.20
2023-08-30T18:16:15.248Z,65.40
2023-08-30T18:18:43.023Z,65.50
2023-08-30T18:21:13.432Z,65.70
2023-08-30T18:24:04.338Z,65.90
2023-08-30T18:26:31.463Z,66.10
2023-08-30T18:29:00.092Z,66.30
2023-08-30T18:31:27.298Z,66.50
2023-08-30T18:33:54.314Z,66.70
2023-08-30T18:36:21.500Z,66.80
2023-08-30T18:38:48.620Z,66.90
2023-08-30T18:41:18.164Z,67.10
2023-08-30T18:43:46.501Z,67.20
2023-08-30T18:46:18.662Z,67.40
2023-08-30T18:48:50.553Z,67.50
2023-08-30T18:51:19.881Z,67.50
2023-08-30T18:53:46.962Z,67.70
2023-08-30T18:56:15.881Z,67.70
2023-08-30T18:58:44.678Z,67.80
2023-08-30T19:01:15.260Z,68.00
2023-08-30T19:03:43.046Z,68.20
2023-08-30T19:06:11.635Z,68.40
2023-08-30T19:08:38.837Z,68.50
2023-08-30T19:11:07.089Z,68.70
2023-08-30T19:13:34.533Z,68.80
2023-08-30T19:16:02.297Z,68.90
2023-08-30T19:18:30.151Z,69.10
2023-08-30T19:21:01.278Z,69.20
2023-08-30T19:23:30.393Z,69.40
2023-08-30T19:25:58.192Z,69.50
2023-08-30T19:28:27.813Z,69.60
2023-08-30T19:30:55.947Z,69.70
2023-08-30T19:33:23.388Z,69.90
2023-08-30T19:35:51.091Z,70.00
2023-08-30T19:38:18.622Z,70.10
2023-08-30T19:40:52.804Z,70.20
2023-08-30T19:43:21.539Z,70.20
2023-08-30T19:45:59.470Z,70.40
2023-08-30T19:48:46.795Z,70.50
2023-08-30T19:51:14.495Z,70.50
2023-08-30T19:53:41.777Z,70.60
2023-08-30T19:56:27.683Z,70.60
2023-08-30T19:58:55.000Z,70.70
2023-08-30T20:01:25.214Z,70.70
2023-08-30T20:03:55.606Z,70.80
2023-08-30T20:06:22.666Z,70.80
2023-08-30T20:08:50.458Z,70.90
2023-08-30T20:11:17.629Z,70.90
2023-08-30T20:13:44.648Z,71.00
2023-08-30T20:16:11.984Z,71.10
2023-08-30T20:18:40.630Z,71.10
2023-08-30T20:21:13.465Z,71.00
2023-08-30T20:23:40.707Z,71.10
2023-08-30T20:26:10.368Z,71.00
2023-08-30T20:28:38.075Z,71.10
2023-08-30T20:31:05.401Z,71.00
2023-08-30T20:33:32.593Z,71.10
2023-08-30T20:36:04.465Z,71.10
2023-08-30T20:38:31.669Z,71.20
2023-08-30T20:40:58.760Z,71.20
2023-08-30T20:43:26.538Z,71.30
2023-08-30T20:45:57.999Z,71.30
2023-08-30T20:48:26.753Z,71.40
2023-08-30T20:51:01.846Z,71.40
2023-08-30T20:53:36.946Z,71.50
2023-08-30T20:56:08.083Z,71.60
2023-08-30T20:58:39.895Z,71.70
2023-08-30T21:01:07.054Z,71.60
2023-08-30T21:03:34.335Z,71.70
2023-08-30T21:06:01.600Z,71.70
2023-08-30T21:08:28.665Z,71.70
2023-08-30T21:10:55.729Z,71.80
2023-08-30T21:13:22.881Z,71.70
2023-08-30T21:15:50.182Z,71.70
2023-08-30T21:18:17.255Z,71.70
2023-08-30T21:20:44.356Z,71.90
2023-08-30T21:23:11.433Z,71.90
2023-08-30T21:25:40.271Z,71.90
2023-08-30T21:28:08.776Z,72.00
2023-08-30T21:30:40.075Z,72.10
2023-08-30T21:33:11.419Z,72.20
2023-08-30T21:35:39.883Z,72.30
2023-08-30T21:38:07.796Z,72.40
2023-08-30T21:40:34.863Z,72.50
2023-08-30T21:43:01.819Z,72.50
2023-08-30T21:45:28.962Z,72.60
2023-08-30T21:47:56.044Z,72.60
2023-08-30T21:50:23.059Z,72.60
2023-08-30T21:52:50.045Z,72.70
2023-08-30T21:55:19.259Z,72.70
2023-08-30T21:57:46.414Z,72.70
2023-08-30T22:00:16.312Z,72.80
2023-08-30T22:02:44.105Z,72.90
2023-08-30T22:05:12.586Z,72.90
2023-08-30T22:07:40.457Z,73.00
2023-08-30T22:10:09.736Z,73.10
2023-08-30T22:12:37.476Z,73.10
2023-08-30T22:15:07.303Z,73.20
2023-08-30T22:17:34.765Z,73.30
2023-08-30T22:20:01.884Z,73.40
2023-08-30T22:22:28.827Z,73.40
2023-08-30T22:24:55.914Z,73.50
2023-08-30T22:27:22.882Z,73.50
2023-08-30T22:29:49.976Z,73.50
2023-08-30T22:32:17.010Z,73.60
2023-08-30T22:34:44.016Z,73.60
2023-08-30T22:37:11.128Z,73.60
2023-08-30T22:39:38.250Z,73.70
2023-08-30T22:42:06.700Z,73.70
2023-08-30T22:44:33.926Z,73.80
2023-08-30T22:47:00.921Z,73.90
2023-08-30T22:49:27.928Z,73.90
2023-08-30T22:51:55.127Z,73.90
2023-08-30T22:54:22.755Z,73.90
2023-08-30T22:56:49.956Z,74.00
2023-08-30T22:59:17.193Z,74.00
2023-08-30T23:01:45.319Z,74.00
2023-08-30T23:04:12.791Z,74.00
2023-08-30T23:06:39.814Z,74.10
2023-08-30T23:09:06.922Z,74.10
2023-08-30T23:11:33.920Z,74.20
2023-08-30T23:14:02.424Z,74.20
2023-08-30T23:16:29.553Z,74.30
2023-08-30T23:18:56.585Z,74.40
2023-08-30T23:21:23.610Z,74.40
2023-08-30T23:23:50.695Z,74.40
2023-08-30T23:26:17.651Z,74.30
2023-08-30T23:28:45.466Z,74.30
2023-08-30T23:31:13.146Z,74.30
2023-08-30T23:33:41.376Z,74.30
2023-08-30T23:36:08.603Z,74.40
2023-08-30T23:38:37.930Z,74.50
2023-08-30T23:41:07.404Z,74.60
2023-08-30T23:43:34.647Z,74.60
2023-08-30T23:46:01.966Z,74.60
2023-08-30T23:48:29.089Z,74.60
2023-08-30T23:50:56.099Z,74.60
2023-08-30T23:53:23.168Z,74.50
2023-08-30T23:55:52.367Z,74.50
2023-08-30T23:58:20.857Z,74.60
